Time;durP1;ratioP1;P1;durP2;ratioP2;P2;SDS_P1;SDS_P2;PMS_P1;PMS_P2;Temp;Humidity;BMP_temperature;BMP_pressure;BME280_temperature;BME280_humidity;BME280_pressure;Samples;Min_cycle;Max_cycle;Signal;HPM_P1;HPM_P2
2023/06/11 00:00:30;;;;;;;6.47;1.97;;;15.20;85.20;;;;;;5103438;27;20279;-78
2023/06/11 00:02:57;;;;;;;3.73;1.77;;;15.10;85.50;;;;;;5091113;28;20242;-81
2023/06/11 00:05:27;;;;;;;3.80;1.70;;;15.10;85.80;;;;;;5092757;27;20233;-80
2023/06/11 00:07:55;;;;;;;5.20;1.67;;;15.10;86.20;;;;;;5091196;28;20254;-80
2023/06/11 00:10:22;;;;;;;5.57;1.83;;;15.00;86.50;;;;;;5087051;28;20302;-79
2023/06/11 00:12:51;;;;;;;5.67;1.60;;;14.90;86.80;;;;;;5089233;28;20232;-81
2023/06/11 00:15:17;;;;;;;4.50;1.70;;;14.90;87.30;;;;;;5080711;28;20312;-79
2023/06/11 00:17:45;;;;;;;2.93;1.53;;;14.90;87.50;;;;;;5090593;28;20279;-78
2023/06/11 00:20:14;;;;;;;4.27;1.90;;;14.80;88.60;;;;;;5089348;28;20223;-80
2023/06/11 00:22:41;;;;;;;3.07;2.00;;;14.70;88.30;;;;;;5092127;28;20804;-80
2023/06/11 00:25:11;;;;;;;4.13;1.80;;;14.60;88.50;;;;;;5093558;27;20309;-80
2023/06/11 00:27:38;;;;;;;3.43;1.33;;;14.60;89.00;;;;;;5087903;28;20225;-80
2023/06/11 00:30:07;;;;;;;3.73;1.47;;;14.60;89.40;;;;;;5091734;28;20707;-79
2023/06/11 00:32:35;;;;;;;2.17;1.63;;;14.50;89.80;;;;;;5089874;28;20769;-80
2023/06/11 00:35:06;;;;;;;4.23;1.80;;;14.50;89.90;;;;;;5085931;28;20758;-81
2023/06/11 00:37:34;;;;;;;3.67;1.60;;;14.40;90.10;;;;;;5086539;28;20311;-80
2023/06/11 00:40:01;;;;;;;4.00;1.60;;;14.30;90.10;;;;;;5082585;28;20234;-78
2023/06/11 00:42:28;;;;;;;4.10;1.73;;;14.40;90.20;;;;;;5089415;28;20248;-80
2023/06/11 00:44:55;;;;;;;4.77;1.70;;;14.30;90.40;;;;;;5093980;28;20217;-80
2023/06/11 00:47:23;;;;;;;6.17;1.90;;;14.30;90.60;;;;;;5115607;27;20334;-80
2023/06/11 00:49:50;;;;;;;5.63;1.67;;;14.20;90.80;;;;;;5084726;28;20250;-80
2023/06/11 00:52:19;;;;;;;3.17;1.40;;;14.20;90.90;;;;;;5088585;28;20256;-80
2023/06/11 00:54:46;;;;;;;4.33;1.83;;;14.20;91.00;;;;;;5084774;28;20869;-80
2023/06/11 00:57:14;;;;;;;4.63;1.87;;;14.10;91.20;;;;;;5086376;28;20752;-79
2023/06/11 00:59:42;;;;;;;3.80;1.67;;;14.10;91.30;;;;;;5088016;28;20664;-80
2023/06/11 01:02:15;;;;;;;4.93;1.60;;;14.10;91.40;;;;;;5088864;28;20256;-80
2023/06/11 01:04:45;;;;;;;3.77;1.80;;;14.00;91.70;;;;;;5083673;28;20245;-81
2023/06/11 01:07:15;;;;;;;6.40;1.90;;;14.00;91.80;;;;;;5088634;28;20238;-80
2023/06/11 01:09:45;;;;;;;4.97;1.80;;;14.00;91.90;;;;;;5079191;28;20570;-81
2023/06/11 01:12:12;;;;;;;5.00;1.83;;;14.00;91.90;;;;;;5079713;28;20264;-79
2023/06/11 01:14:39;;;;;;;6.60;2.07;;;13.90;92.00;;;;;;5087039;28;20232;-78
2023/06/11 01:17:15;;;;;;;5.87;2.00;;;13.90;92.30;;;;;;5088007;27;20225;-82
2023/06/11 01:20:10;;;;;;;2.83;1.93;;;13.90;92.40;;;;;;5112790;27;20279;-80
2023/06/11 01:22:58;;;;;;;3.33;1.57;;;13.80;92.80;;;;;;5077966;28;20229;-80
2023/06/11 01:25:31;;;;;;;4.83;1.93;;;13.80;92.80;;;;;;5079974;28;20248;-81
2023/06/11 01:28:07;;;;;;;4.03;1.53;;;13.80;92.80;;;;;;5082205;28;20225;-79
2023/06/11 01:30:36;;;;;;;4.40;2.20;;;13.70;93.10;;;;;;5109124;27;20228;-79
2023/06/11 01:33:05;;;;;;;4.90;2.07;;;13.70;92.90;;;;;;5117125;27;20294;-80
2023/06/11 01:35:36;;;;;;;4.10;1.80;;;13.70;93.10;;;;;;5085732;28;20228;-80
2023/06/11 01:38:03;;;;;;;7.20;2.30;;;13.60;93.20;;;;;;5087278;28;20629;-82
2023/06/11 01:40:36;;;;;;;2.50;1.40;;;13.60;93.40;;;;;;5084366;28;20756;-80
2023/06/11 01:43:05;;;;;;;4.20;1.70;;;13.60;93.40;;;;;;5108628;27;20843;-82
2023/06/11 01:45:34;;;;;;;5.37;1.43;;;13.50;93.70;;;;;;5094137;28;20784;-80
2023/06/11 01:48:01;;;;;;;3.77;1.73;;;13.50;93.80;;;;;;5083012;28;20794;-80
2023/06/11 01:50:29;;;;;;;4.73;1.90;;;13.50;93.90;;;;;;5080266;28;20800;-80
2023/06/11 01:52:56;;;;;;;4.17;1.70;;;13.40;94.00;;;;;;5110018;27;20230;-80
2023/06/11 01:55:24;;;;;;;6.10;2.03;;;13.40;94.20;;;;;;5077985;28;20256;-80
2023/06/11 01:57:51;;;;;;;4.40;1.70;;;13.40;94.30;;;;;;5084507;28;20737;-79
2023/06/11 02:00:19;;;;;;;2.93;1.70;;;13.40;94.50;;;;;;5112817;27;21223;-81
2023/06/11 02:02:49;;;;;;;3.33;1.90;;;13.30;94.80;;;;;;5107312;27;20226;-79
2023/06/11 02:05:17;;;;;;;4.90;1.80;;;13.30;95.00;;;;;;5082720;27;20336;-77
2023/06/11 02:07:45;;;;;;;3.03;1.60;;;13.20;95.00;;;;;;5083225;28;21042;-80
2023/06/11 02:10:12;;;;;;;3.57;1.80;;;13.20;95.20;;;;;;5086480;28;20279;-80
2023/06/11 02:12:38;;;;;;;3.20;1.80;;;13.20;95.40;;;;;;5082546;28;20288;-78
2023/06/11 02:15:07;;;;;;;3.97;1.90;;;13.20;95.50;;;;;;5078623;28;20217;-80
2023/06/11 02:17:35;;;;;;;3.70;1.97;;;13.10;95.70;;;;;;5086923;28;20236;-77
2023/06/11 02:20:05;;;;;;;3.97;1.70;;;13.10;95.80;;;;;;5079364;28;20298;-77
2023/06/11 02:22:32;;;;;;;4.07;1.80;;;13.10;95.90;;;;;;5083848;28;20259;-80
2023/06/11 02:24:59;;;;;;;4.70;1.60;;;13.00;96.10;;;;;;5127897;27;20229;-80
2023/06/11 02:27:26;;;;;;;3.47;1.70;;;13.00;96.20;;;;;;5083798;28;20709;-81
2023/06/11 02:29:53;;;;;;;4.60;1.73;;;13.00;96.30;;;;;;5074307;28;20222;-80
2023/06/11 02:32:20;;;;;;;6.83;1.67;;;12.90;96.50;;;;;;5115667;27;20225;-81
2023/06/11 02:34:48;;;;;;;3.63;1.80;;;12.90;96.70;;;;;;5085682;28;20641;-81
2023/06/11 02:37:15;;;;;;;5.47;2.53;;;12.90;96.90;;;;;;5088829;27;20738;-79
2023/06/11 02:39:42;;;;;;;3.73;1.63;;;12.80;96.90;;;;;;5093536;28;20263;-81
2023/06/11 02:42:09;;;;;;;6.20;1.90;;;12.80;97.10;;;;;;5113250;27;20545;-82
2023/06/11 02:44:36;;;;;;;4.07;1.60;;;12.80;97.30;;;;;;5087654;28;20251;-82
2023/06/11 02:47:03;;;;;;;3.77;1.67;;;12.80;97.50;;;;;;5081962;27;20217;-83
2023/06/11 02:49:31;;;;;;;6.23;1.90;;;12.70;97.60;;;;;;5087984;28;20229;-78
2023/06/11 02:51:59;;;;;;;2.97;1.63;;;12.70;97.80;;;;;;5122664;27;20229;-79
2023/06/11 02:54:26;;;;;;;3.37;1.70;;;12.70;98.00;;;;;;5080006;28;20229;-78
2023/06/11 02:56:53;;;;;;;5.20;2.40;;;12.70;98.10;;;;;;5081937;28;20311;-79
2023/06/11 02:59:20;;;;;;;4.30;1.90;;;12.60;98.20;;;;;;5119012;27;20236;-80
2023/06/11 03:01:47;;;;;;;3.27;1.57;;;12.60;98.50;;;;;;5090995;28;20234;-81
2023/06/11 03:04:14;;;;;;;4.33;1.73;;;12.60;98.90;;;;;;5087495;28;20225;-81
2023/06/11 03:06:41;;;;;;;5.53;2.07;;;12.60;98.80;;;;;;5080741;28;20280;-80
2023/06/11 03:09:10;;;;;;;4.67;1.80;;;12.60;99.00;;;;;;5079745;28;20851;-79
2023/06/11 03:11:37;;;;;;;5.17;1.90;;;12.60;99.10;;;;;;5079779;28;20292;-78
2023/06/11 03:14:04;;;;;;;3.83;1.80;;;12.70;99.20;;;;;;5076002;27;20282;-80
2023/06/11 03:16:32;;;;;;;4.43;2.00;;;12.70;99.20;;;;;;5112757;27;20720;-80
2023/06/11 03:19:00;;;;;;;4.40;1.60;;;12.80;99.40;;;;;;5080463;28;20218;-81
2023/06/11 03:21:27;;;;;;;6.93;2.10;;;12.80;99.50;;;;;;5079679;28;20222;-80
2023/06/11 03:23:54;;;;;;;2.70;1.60;;;12.80;99.60;;;;;;5090433;28;20312;-78
2023/06/11 03:26:24;;;;;;;3.70;1.70;;;12.80;99.60;;;;;;5114522;27;20256;-81
2023/06/11 03:28:52;;;;;;;4.23;2.20;;;12.90;99.70;;;;;;5111958;27;20236;-81
2023/06/11 03:31:21;;;;;;;3.57;1.63;;;12.90;99.90;;;;;;5076486;28;20260;-81
2023/06/11 03:33:49;;;;;;;7.53;1.93;;;13.00;99.80;;;;;;5081090;28;20216;-81
2023/06/11 03:36:18;;;;;;;5.53;2.10;;;13.00;99.80;;;;;;5116735;27;20271;-79
2023/06/11 03:38:46;;;;;;;3.43;1.97;;;13.00;99.90;;;;;;5089624;28;20223;-80
2023/06/11 03:41:16;;;;;;;4.27;2.10;;;13.10;99.90;;;;;;5081210;28;20220;-80
2023/06/11 03:43:45;;;;;;;3.97;1.73;;;13.10;99.90;;;;;;5083940;28;20921;-79
2023/06/11 03:46:12;;;;;;;5.57;2.13;;;13.20;99.90;;;;;;5084563;28;20221;-81
2023/06/11 03:48:40;;;;;;;3.50;1.80;;;13.20;99.90;;;;;;5119138;27;20227;-80
2023/06/11 03:51:08;;;;;;;3.47;1.97;;;13.20;99.90;;;;;;5080237;28;20280;-82
2023/06/11 03:53:35;;;;;;;5.57;1.90;;;13.30;99.90;;;;;;5107697;27;20253;-80
2023/06/11 03:56:02;;;;;;;4.47;2.43;;;13.30;99.90;;;;;;5079594;28;20222;-80
2023/06/11 03:58:29;;;;;;;4.77;2.23;;;13.40;99.90;;;;;;5114968;27;20286;-79
2023/06/11 04:00:58;;;;;;;4.30;2.10;;;13.40;99.90;;;;;;5079429;28;20843;-80
2023/06/11 04:03:25;;;;;;;3.03;2.10;;;13.50;99.90;;;;;;5080979;28;20673;-78
2023/06/11 04:05:52;;;;;;;5.33;2.30;;;13.60;99.90;;;;;;5116386;27;20665;-79
2023/06/11 04:08:19;;;;;;;3.40;1.83;;;13.60;99.90;;;;;;5079749;27;20226;-79
2023/06/11 04:10:46;;;;;;;4.13;1.87;;;13.70;99.90;;;;;;5076368;28;20243;-80
2023/06/11 04:13:13;;;;;;;3.50;1.80;;;13.80;99.90;;;;;;5111244;27;20233;-81
2023/06/11 04:15:40;;;;;;;6.87;2.37;;;13.80;99.90;;;;;;5085732;28;20278;-79
2023/06/11 04:18:12;;;;;;;3.77;1.93;;;13.90;99.90;;;;;;5076514;28;20225;-79
2023/06/11 04:20:39;;;;;;;4.13;2.10;;;14.00;99.90;;;;;;5088455;28;20221;-80
2023/06/11 04:23:06;;;;;;;5.90;2.30;;;14.00;99.90;;;;;;5086174;28;20284;-80
2023/06/11 04:25:36;;;;;;;5.50;2.07;;;14.10;99.90;;;;;;5079396;28;20755;-79
2023/06/11 04:28:04;;;;;;;5.07;2.37;;;14.10;99.90;;;;;;5120208;27;20225;-81
2023/06/11 04:30:33;;;;;;;3.10;2.00;;;14.20;99.90;;;;;;5121309;27;20222;-80
2023/06/11 04:33:03;;;;;;;4.83;2.20;;;14.20;99.90;;;;;;5109967;27;20223;-80
2023/06/11 04:35:34;;;;;;;7.10;2.13;;;14.30;99.90;;;;;;5093818;28;20259;-81
2023/06/11 04:38:04;;;;;;;5.07;2.07;;;14.40;99.90;;;;;;5092005;28;20211;-80
2023/06/11 04:40:33;;;;;;;6.40;2.27;;;14.40;99.90;;;;;;5079181;28;20226;-82
2023/06/11 04:43:01;;;;;;;3.23;1.90;;;14.50;99.90;;;;;;5096220;28;20264;-81
2023/06/11 04:45:30;;;;;;;3.97;1.97;;;14.60;99.90;;;;;;5117203;27;20804;-82
2023/06/11 04:48:00;;;;;;;5.37;2.03;;;14.60;99.90;;;;;;5084554;28;20855;-81
2023/06/11 04:50:28;;;;;;;4.23;1.90;;;14.70;99.90;;;;;;5116360;27;20233;-79
2023/06/11 04:53:01;;;;;;;5.43;2.10;;;14.80;99.90;;;;;;5114047;27;20233;-82
2023/06/11 04:55:38;;;;;;;4.80;2.10;;;15.00;99.90;;;;;;5085900;28;20310;-82
2023/06/11 04:58:05;;;;;;;3.90;2.37;;;15.10;99.90;;;;;;5085191;27;20250;-81
2023/06/11 05:00:32;;;;;;;4.63;2.27;;;15.20;99.80;;;;;;5095302;27;20283;-81
2023/06/11 05:03:01;;;;;;;3.97;2.20;;;15.30;99.60;;;;;;5075739;28;20220;-81
2023/06/11 05:05:29;;;;;;;5.47;2.63;;;15.50;99.60;;;;;;5085195;28;20223;-81
2023/06/11 05:07:56;;;;;;;5.70;2.13;;;15.60;99.40;;;;;;5090894;28;20218;-80
2023/06/11 05:10:24;;;;;;;3.57;2.03;;;15.80;99.30;;;;;;5086364;28;20774;-82
2023/06/11 05:12:52;;;;;;;7.47;2.27;;;15.90;99.10;;;;;;5110583;27;20245;-81
2023/06/11 05:15:19;;;;;;;4.60;2.63;;;16.00;98.80;;;;;;5081750;28;20839;-82
2023/06/11 05:17:46;;;;;;;3.28;1.95;;;16.20;98.60;;;;;;5087401;28;20784;-79
2023/06/11 05:20:13;;;;;;;6.22;2.13;;;16.30;98.60;;;;;;5110100;27;20315;-80
2023/06/11 05:22:40;;;;;;;3.92;2.10;;;16.40;98.30;;;;;;5091870;28;20658;-79
2023/06/11 05:25:08;;;;;;;3.35;2.00;;;16.40;98.10;;;;;;5088057;28;20218;-80
2023/06/11 05:27:37;;;;;;;5.00;2.10;;;16.50;97.90;;;;;;5085298;28;20238;-81
2023/06/11 05:30:07;;;;;;;6.30;1.98;;;16.50;97.80;;;;;;5113580;27;20230;-80
2023/06/11 05:32:36;;;;;;;3.60;2.20;;;16.50;97.70;;;;;;5082408;28;20246;-79
2023/06/11 05:35:03;;;;;;;4.43;1.98;;;16.60;97.70;;;;;;5117924;27;20227;-80
2023/06/11 05:37:30;;;;;;;3.17;2.00;;;16.50;97.50;;;;;;5094347;27;20253;-80
2023/06/11 05:39:58;;;;;;;4.67;2.00;;;16.50;97.60;;;;;;5089160;28;20223;-80
2023/06/11 05:42:25;;;;;;;6.57;2.42;;;16.50;97.60;;;;;;5076711;28;20226;-80
2023/06/11 05:44:53;;;;;;;5.50;2.40;;;16.50;97.60;;;;;;5086737;28;20238;-80
2023/06/11 05:47:21;;;;;;;5.57;2.63;;;16.50;97.70;;;;;;5080746;28;20215;-80
2023/06/11 05:49:49;;;;;;;5.97;2.00;;;16.50;97.80;;;;;;5089876;28;20304;-80
2023/06/11 05:52:16;;;;;;;3.67;2.10;;;16.50;97.80;;;;;;5085551;27;20223;-81
2023/06/11 05:54:43;;;;;;;5.70;2.28;;;16.40;97.90;;;;;;5089585;28;20214;-81
2023/06/11 05:57:18;;;;;;;3.87;2.47;;;16.40;97.90;;;;;;5083734;28;20232;-81
2023/06/11 05:59:46;;;;;;;5.30;2.35;;;16.40;98.10;;;;;;5086897;28;20271;-79
2023/06/11 06:02:14;;;;;;;3.88;2.40;;;16.50;98.00;;;;;;5070767;28;20301;-80
2023/06/11 06:04:40;;;;;;;10.48;2.40;;;16.50;98.00;;;;;;5111935;27;20293;-79
2023/06/11 06:07:08;;;;;;;5.95;2.50;;;16.50;98.00;;;;;;5084240;28;20290;-81
2023/06/11 06:09:35;;;;;;;5.30;2.40;;;16.50;98.00;;;;;;5117291;27;20308;-80
2023/06/11 06:12:02;;;;;;;8.30;2.60;;;16.50;98.10;;;;;;5090131;28;20215;-81
2023/06/11 06:14:29;;;;;;;4.87;2.23;;;16.60;98.50;;;;;;5085146;28;20293;-80
2023/06/11 06:16:56;;;;;;;5.27;2.27;;;16.60;98.10;;;;;;5083458;28;20225;-80
2023/06/11 06:19:30;;;;;;;6.07;2.10;;;16.60;98.10;;;;;;5122625;27;20281;-79
2023/06/11 06:21:57;;;;;;;4.20;2.10;;;16.70;98.20;;;;;;5092714;28;20274;-79
2023/06/11 06:24:24;;;;;;;5.40;2.40;;;16.80;98.10;;;;;;5080177;28;21103;-83
2023/06/11 06:26:56;;;;;;;4.82;2.85;;;16.80;98.20;;;;;;5114432;27;20689;-81
2023/06/11 06:29:26;;;;;;;5.25;2.30;;;16.90;98.30;;;;;;5082491;27;20221;-82
2023/06/11 06:31:54;;;;;;;4.78;2.35;;;17.00;98.50;;;;;;5118552;27;20264;-79
2023/06/11 06:34:20;;;;;;;5.30;2.30;;;17.20;98.30;;;;;;5109717;27;20225;-79
2023/06/11 06:36:50;;;;;;;6.78;2.25;;;17.50;98.10;;;;;;5082551;28;20218;-80
2023/06/11 06:39:17;;;;;;;5.95;2.63;;;17.70;97.80;;;;;;5085596;28;20787;-80
2023/06/11 06:41:44;;;;;;;4.78;2.22;;;17.90;97.40;;;;;;5083686;27;20252;-80
2023/06/11 06:44:13;;;;;;;4.68;2.40;;;18.10;97.10;;;;;;5082279;28;20272;-80
2023/06/11 06:46:40;;;;;;;3.33;2.17;;;18.30;96.70;;;;;;5079188;28;20282;-81
2023/06/11 06:49:07;;;;;;;3.45;1.95;;;18.40;96.40;;;;;;5091660;28;20235;-81
2023/06/11 06:51:35;;;;;;;6.90;2.63;;;18.50;96.20;;;;;;5123399;27;20222;-80
2023/06/11 06:54:04;;;;;;;5.05;2.50;;;18.60;95.90;;;;;;5089321;28;20222;-81
2023/06/11 06:56:31;;;;;;;5.25;2.30;;;18.70;95.90;;;;;;5085705;28;20227;-81
2023/06/11 06:58:57;;;;;;;4.63;2.05;;;18.80;95.80;;;;;;5088343;28;20527;-80
2023/06/11 07:01:24;;;;;;;5.07;2.67;;;19.00;95.70;;;;;;5091133;28;20769;-80
2023/06/11 07:03:51;;;;;;;5.18;2.30;;;19.30;95.60;;;;;;5091673;28;20253;-80
2023/06/11 07:06:19;;;;;;;6.50;2.03;;;19.70;95.70;;;;;;5087249;28;20306;-82
2023/06/11 07:08:47;;;;;;;3.95;2.50;;;20.30;95.70;;;;;;5121518;27;20286;-81
2023/06/11 07:11:18;;;;;;;4.45;2.42;;;21.00;95.10;;;;;;5085091;27;20219;-84
2023/06/11 07:13:46;;;;;;;4.57;2.22;;;21.80;93.80;;;;;;5088565;28;20227;-83
2023/06/11 07:16:14;;;;;;;7.72;2.60;;;22.70;93.30;;;;;;5090469;27;20276;-82
2023/06/11 07:18:45;;;;;;;3.95;2.28;;;23.60;92.10;;;;;;5122129;27;20286;-80
2023/06/11 07:21:12;;;;;;;3.45;2.00;;;24.50;90.90;;;;;;5086635;27;20267;-81
2023/06/11 07:23:40;;;;;;;3.90;2.08;;;25.50;88.50;;;;;;5080689;28;20272;-82
2023/06/11 07:26:06;;;;;;;2.90;2.30;;;26.30;85.40;;;;;;5116368;27;20225;-83
2023/06/11 07:28:36;;;;;;;4.22;2.35;;;27.00;82.80;;;;;;5083026;28;20256;-79
2023/06/11 07:31:02;;;;;;;6.30;2.60;;;27.70;78.50;;;;;;5115906;27;20212;-79
2023/06/11 07:33:30;;;;;;;4.85;2.08;;;28.40;76.80;;;;;;5091335;28;20237;-79
2023/06/11 07:35:59;;;;;;;3.10;2.03;;;28.90;74.30;;;;;;5083276;28;20313;-81
2023/06/11 07:38:26;;;;;;;5.68;2.55;;;29.50;71.50;;;;;;5119624;27;20243;-83
2023/06/11 07:40:53;;;;;;;4.88;2.35;;;29.90;69.80;;;;;;5078076;27;20227;-81
2023/06/11 07:43:23;;;;;;;4.60;2.40;;;30.30;68.10;;;;;;5076996;27;20219;-81
2023/06/11 07:45:51;;;;;;;3.15;2.00;;;30.70;67.00;;;;;;5075517;28;20223;-82
2023/06/11 07:48:18;;;;;;;3.42;2.38;;;31.10;64.70;;;;;;5110569;27;20632;-80
2023/06/11 07:50:49;;;;;;;6.90;2.33;;;31.50;63.50;;;;;;5087288;28;20222;-82
2023/06/11 07:53:18;;;;;;;4.03;2.17;;;31.80;62.40;;;;;;5075595;27;20227;-80
2023/06/11 07:55:47;;;;;;;6.13;2.20;;;32.20;60.60;;;;;;5082772;28;20222;-80
2023/06/11 07:58:14;;;;;;;3.53;2.30;;;32.50;59.40;;;;;;5088533;27;20211;-80
2023/06/11 08:00:41;;;;;;;2.38;2.17;;;32.60;58.00;;;;;;5083801;28;20227;-80
2023/06/11 08:03:09;;;;;;;4.85;2.40;;;32.80;58.00;;;;;;5080223;27;20235;-81
2023/06/11 08:05:36;;;;;;;3.55;2.53;;;33.00;56.00;;;;;;5079388;27;20230;-81
2023/06/11 08:08:02;;;;;;;2.88;2.30;;;33.30;56.70;;;;;;5110600;27;20586;-81
2023/06/11 08:10:29;;;;;;;3.45;2.28;;;33.50;56.10;;;;;;5075509;27;20230;-80
2023/06/11 08:12:56;;;;;;;3.45;2.47;;;33.80;55.60;;;;;;5079729;28;20302;-80
2023/06/11 08:15:23;;;;;;;3.83;2.63;;;34.10;54.60;;;;;;5088706;28;20231;-81
2023/06/11 08:17:49;;;;;;;7.45;2.60;;;34.20;53.50;;;;;;5085923;28;20237;-80
2023/06/11 08:20:18;;;;;;;3.67;2.38;;;34.30;53.10;;;;;;5084148;28;20249;-80
2023/06/11 08:22:45;;;;;;;2.72;2.25;;;34.30;52.30;;;;;;5086831;28;20225;-79
2023/06/11 08:25:12;;;;;;;4.28;2.50;;;34.40;52.30;;;;;;5086885;28;20218;-80
2023/06/11 08:27:38;;;;;;;7.95;2.72;;;34.50;51.80;;;;;;5087745;28;20225;-80
2023/06/11 08:30:06;;;;;;;3.03;1.98;;;34.60;51.70;;;;;;5083299;28;20310;-80
2023/06/11 08:32:33;;;;;;;5.25;2.40;;;34.70;51.30;;;;;;5085922;27;20219;-80
2023/06/11 08:35:00;;;;;;;4.60;2.55;;;34.80;50.90;;;;;;5087825;28;20223;-80
2023/06/11 08:37:28;;;;;;;3.47;2.30;;;34.90;50.60;;;;;;5076730;28;20453;-80
2023/06/11 08:39:55;;;;;;;2.83;2.15;;;35.00;49.90;;;;;;5087733;28;21021;-80
2023/06/11 08:42:21;;;;;;;5.68;2.33;;;35.10;49.60;;;;;;5086563;28;20765;-80
2023/06/11 08:44:49;;;;;;;6.45;2.50;;;35.30;49.70;;;;;;5087913;28;20406;-80
2023/06/11 08:47:17;;;;;;;3.13;2.75;;;35.60;50.00;;;;;;5084995;28;20224;-80
2023/06/11 08:49:45;;;;;;;4.22;2.53;;;35.90;48.90;;;;;;5080768;28;20219;-81
2023/06/11 08:52:14;;;;;;;2.85;2.15;;;36.20;48.50;;;;;;5083878;28;20215;-81
2023/06/11 08:54:42;;;;;;;4.80;2.42;;;36.40;47.70;;;;;;5079385;28;20227;-80
2023/06/11 08:57:09;;;;;;;4.75;2.47;;;36.60;47.10;;;;;;5087115;28;20245;-80
2023/06/11 08:59:36;;;;;;;3.50;2.47;;;36.80;46.50;;;;;;5086365;28;20227;-80
2023/06/11 09:02:03;;;;;;;5.00;2.40;;;37.00;46.50;;;;;;5088925;28;20222;-80
2023/06/11 09:04:30;;;;;;;4.60;2.50;;;37.10;45.90;;;;;;5092897;28;20249;-79
2023/06/11 09:06:59;;;;;;;3.50;2.40;;;37.30;45.50;;;;;;5083204;28;20223;-81
2023/06/11 09:09:25;;;;;;;2.67;2.25;;;37.50;44.70;;;;;;5085491;28;20672;-80
2023/06/11 09:11:54;;;;;;;3.78;2.33;;;37.60;44.30;;;;;;5090644;28;20309;-80
2023/06/11 09:14:21;;;;;;;2.65;2.35;;;37.60;43.90;;;;;;5085294;28;20250;-80
2023/06/11 09:16:49;;;;;;;4.13;2.50;;;37.50;43.70;;;;;;5089697;28;20217;-80
2023/06/11 09:19:17;;;;;;;4.30;3.05;;;37.50;43.30;;;;;;5094676;28;20241;-80
2023/06/11 09:21:51;;;;;;;6.32;2.97;;;37.50;43.20;;;;;;5118588;27;20215;-81
2023/06/11 09:24:19;;;;;;;3.88;2.70;;;37.50;42.80;;;;;;5084938;28;20215;-81
2023/06/11 09:26:51;;;;;;;5.18;2.38;;;37.60;42.90;;;;;;5086149;28;20225;-80
2023/06/11 09:29:19;;;;;;;4.72;2.28;;;37.50;42.30;;;;;;5086552;28;20230;-80
2023/06/11 09:31:46;;;;;;;3.42;2.50;;;37.50;42.30;;;;;;5088139;28;20218;-81
2023/06/11 09:34:16;;;;;;;5.15;2.70;;;37.50;42.30;;;;;;5090579;28;20229;-80
2023/06/11 09:36:47;;;;;;;3.05;2.55;;;37.50;41.70;;;;;;5089784;28;20300;-80
2023/06/11 09:39:16;;;;;;;5.38;2.70;;;37.50;41.20;;;;;;5094635;28;20847;-81
2023/06/11 09:41:48;;;;;;;4.72;2.53;;;37.60;41.20;;;;;;5089152;28;20210;-80
2023/06/11 09:44:15;;;;;;;6.03;2.75;;;37.60;40.70;;;;;;5083289;28;20249;-81
2023/06/11 09:46:43;;;;;;;8.05;2.55;;;37.70;40.70;;;;;;5083069;28;20722;-81
2023/06/11 09:49:11;;;;;;;6.03;2.70;;;37.60;40.20;;;;;;5116688;27;20413;-80
2023/06/11 09:51:39;;;;;;;4.53;2.30;;;37.50;40.00;;;;;;5119738;27;20237;-81
2023/06/11 09:54:07;;;;;;;4.05;2.47;;;37.30;39.60;;;;;;5082454;27;20238;-80
2023/06/11 09:56:35;;;;;;;4.32;2.67;;;37.10;40.00;;;;;;5081295;28;20286;-81
2023/06/11 09:59:03;;;;;;;4.05;2.50;;;37.10;40.40;;;;;;5080645;28;20246;-80
2023/06/11 10:01:30;;;;;;;2.88;2.58;;;37.00;40.10;;;;;;5075610;28;20343;-79
2023/06/11 10:03:59;;;;;;;4.70;2.70;;;37.00;39.20;;;;;;5080982;28;20601;-80
2023/06/11 10:06:30;;;;;;;3.47;2.35;;;36.90;38.80;;;;;;5101661;27;20831;-80
2023/06/11 10:08:59;;;;;;;3.13;2.38;;;36.80;38.60;;;;;;5111521;27;20226;-79
2023/06/11 10:11:29;;;;;;;6.38;2.97;;;36.70;38.90;;;;;;5087014;28;20223;-80
2023/06/11 10:14:00;;;;;;;4.28;2.55;;;36.60;39.20;;;;;;5077339;28;20226;-78
2023/06/11 10:16:27;;;;;;;4.13;2.30;;;36.70;38.80;;;;;;5086358;28;20609;-78
2023/06/11 10:19:06;;;;;;;5.00;2.30;;;36.70;38.90;;;;;;5089161;28;20225;-80
2023/06/11 10:21:40;;;;;;;3.55;2.65;;;36.80;38.80;;;;;;5091089;28;20226;-81
2023/06/11 10:24:07;;;;;;;3.13;2.75;;;36.90;38.90;;;;;;5086711;28;20221;-81
2023/06/11 10:26:35;;;;;;;4.18;2.60;;;37.10;38.10;;;;;;5087810;28;20750;-80
2023/06/11 10:29:02;;;;;;;3.78;2.47;;;37.20;37.60;;;;;;5084099;28;20229;-79
2023/06/11 10:31:30;;;;;;;4.88;2.40;;;37.20;37.10;;;;;;5093559;27;20254;-81
2023/06/11 10:34:05;;;;;;;6.00;2.72;;;37.20;36.90;;;;;;5093769;28;20222;-81
2023/06/11 10:36:35;;;;;;;4.15;2.50;;;37.10;36.50;;;;;;5088859;28;20259;-80
2023/06/11 10:39:08;;;;;;;2.95;2.45;;;37.20;36.60;;;;;;5094741;28;20227;-79
2023/06/11 10:41:37;;;;;;;4.43;2.55;;;37.20;36.60;;;;;;5089949;28;20230;-80
2023/06/11 10:44:04;;;;;;;3.92;2.70;;;37.20;36.50;;;;;;5094287;28;20632;-79
2023/06/11 10:46:31;;;;;;;3.67;2.35;;;37.20;36.80;;;;;;5088552;28;20234;-79
2023/06/11 10:48:58;;;;;;;5.13;2.80;;;37.30;37.00;;;;;;5091009;28;20226;-81
2023/06/11 10:51:35;;;;;;;3.30;2.30;;;37.50;36.80;;;;;;5094003;28;20218;-81
2023/06/11 10:54:02;;;;;;;2.95;2.40;;;37.80;36.40;;;;;;5089698;28;20329;-80
2023/06/11 10:56:29;;;;;;;5.57;4.53;;;38.00;36.10;;;;;;5091808;28;20951;-81
2023/06/11 10:58:56;;;;;;;3.33;2.50;;;38.20;35.50;;;;;;5084898;28;20284;-81
2023/06/11 11:01:23;;;;;;;4.97;2.38;;;38.50;35.20;;;;;;5093984;27;20230;-79
2023/06/11 11:03:51;;;;;;;3.70;2.42;;;38.80;35.20;;;;;;5099264;28;20257;-81
2023/06/11 11:06:26;;;;;;;4.13;2.60;;;39.00;34.90;;;;;;5090122;28;20222;-80
2023/06/11 11:08:55;;;;;;;5.35;2.45;;;39.30;34.00;;;;;;5095121;28;20226;-79
2023/06/11 11:11:23;;;;;;;2.72;2.40;;;39.40;33.60;;;;;;5087998;28;21872;-81
2023/06/11 11:13:50;;;;;;;3.55;2.17;;;39.50;31.20;;;;;;5089251;28;20281;-78
2023/06/11 11:16:19;;;;;;;3.28;2.75;;;39.50;32.40;;;;;;5096823;27;20221;-78
2023/06/11 11:18:47;;;;;;;4.68;2.45;;;39.50;32.30;;;;;;5086206;28;20235;-80
2023/06/11 11:21:14;;;;;;;3.38;2.42;;;39.40;32.30;;;;;;5097016;28;20228;-80
2023/06/11 11:23:42;;;;;;;3.15;2.40;;;39.30;31.50;;;;;;5101616;28;20226;-79
2023/06/11 11:26:10;;;;;;;2.97;2.70;;;39.10;31.20;;;;;;5100398;28;20322;-78
2023/06/11 11:28:37;;;;;;;5.70;2.70;;;38.90;31.20;;;;;;5103746;28;20304;-78
2023/06/11 11:31:04;;;;;;;4.15;2.67;;;38.60;31.50;;;;;;5098649;28;20230;-78
2023/06/11 11:33:33;;;;;;;4.70;2.70;;;38.40;31.80;;;;;;5134267;27;20214;-78
2023/06/11 11:36:03;;;;;;;6.22;2.30;;;38.20;30.70;;;;;;5098570;28;20249;-78
2023/06/11 11:38:34;;;;;;;3.30;2.47;;;38.10;30.60;;;;;;5107794;28;20844;-80
2023/06/11 11:41:03;;;;;;;4.63;2.40;;;37.90;31.30;;;;;;5087114;28;20212;-79
2023/06/11 11:43:37;;;;;;;4.28;2.25;;;37.70;31.10;;;;;;5087598;28;20223;-79
2023/06/11 11:46:14;;;;;;;4.63;2.47;;;37.60;31.30;;;;;;5096728;28;20221;-79
2023/06/11 11:48:41;;;;;;;4.15;2.53;;;37.50;31.30;;;;;;5097410;28;20248;-80
2023/06/11 11:51:08;;;;;;;2.90;2.40;;;37.50;31.50;;;;;;5103454;28;20245;-80
2023/06/11 11:53:37;;;;;;;3.17;2.70;;;37.50;31.30;;;;;;5101932;28;20225;-80
2023/06/11 11:56:05;;;;;;;4.05;2.72;;;37.30;31.60;;;;;;5106924;28;20356;-80
2023/06/11 11:58:37;;;;;;;4.05;2.40;;;37.20;30.80;;;;;;5113143;27;20220;-80
2023/06/11 12:01:04;;;;;;;4.28;2.83;;;36.90;31.30;;;;;;5118879;27;20235;-80
2023/06/11 12:03:31;;;;;;;2.50;2.20;;;36.70;31.20;;;;;;5118415;27;20221;-80
2023/06/11 12:06:00;;;;;;;5.72;2.75;;;36.40;31.00;;;;;;5102989;27;20272;-80
2023/06/11 12:08:28;;;;;;;3.45;2.72;;;36.10;31.20;;;;;;5102741;27;20259;-80
2023/06/11 12:10:55;;;;;;;3.22;2.53;;;35.80;30.80;;;;;;5104968;28;20230;-80
2023/06/11 12:13:23;;;;;;;3.58;2.67;;;35.60;31.80;;;;;;5113457;27;20222;-80
2023/06/11 12:15:50;;;;;;;3.05;2.42;;;35.20;31.80;;;;;;5118574;27;20226;-81
2023/06/11 12:18:18;;;;;;;4.18;2.25;;;35.10;32.60;;;;;;5102400;27;20818;-80
2023/06/11 12:20:45;;;;;;;4.07;2.78;;;34.80;32.00;;;;;;5103191;27;20227;-80
2023/06/11 12:23:12;;;;;;;4.25;2.55;;;34.70;32.60;;;;;;5102806;27;20242;-80
2023/06/11 12:25:40;;;;;;;5.28;2.42;;;34.50;32.30;;;;;;5100552;28;20693;-80
2023/06/11 12:28:06;;;;;;;3.92;2.20;;;34.30;32.00;;;;;;5099992;28;20222;-80
2023/06/11 12:30:35;;;;;;;3.70;2.47;;;34.20;32.40;;;;;;5104428;28;20226;-80
2023/06/11 12:33:02;;;;;;;5.07;2.45;;;34.10;32.40;;;;;;5103570;28;20218;-80
2023/06/11 12:35:30;;;;;;;3.50;2.17;;;34.00;32.60;;;;;;5092562;28;20268;-80
2023/06/11 12:37:57;;;;;;;4.32;2.42;;;34.00;33.20;;;;;;5101746;28;20215;-80
2023/06/11 12:40:24;;;;;;;3.67;2.40;;;34.00;32.80;;;;;;5097060;28;20230;-80
2023/06/11 12:42:56;;;;;;;2.90;2.58;;;34.10;33.20;;;;;;5108260;28;20222;-80
2023/06/11 12:45:24;;;;;;;4.20;2.42;;;34.20;33.00;;;;;;5097667;28;20226;-80
2023/06/11 12:47:52;;;;;;;2.78;2.20;;;34.30;33.20;;;;;;5105370;27;20294;-80
2023/06/11 12:50:18;;;;;;;3.58;2.30;;;34.30;32.30;;;;;;5097652;27;20644;-79
2023/06/11 12:52:45;;;;;;;3.10;2.33;;;34.40;32.30;;;;;;5112631;28;20305;-80